MET'MAP v2.0
soon released !

Expected late october,
this new version will be
more efficient, smarter,
and hosted on a brand new
server x3 powerfull...
...and still free !


Not compatible ?
Try the mobile version !

LOG IN : | Subscribe | Disclaimer | Who is Orbifly ? |
ICAO code :

TAF - LBBG Burgas - 27 May 2020 17:57 UTC - Data Source NOAA   


- Airport Elevation : 135 ft
- IATA code : BOJ
- No reported NOTAMs.


LBBG - Burgas

Latest METAR recorded : 2015/08/11 08:00 LBBG 110800Z 15010KT CAVOK 29/17 Q1010 NOSIG
TAF TAF LBBG
Valid from the 27 at 12:00 until the 28 at 12:00 UTC


271100Z 2712/2812 06012KT 9999 SCT040
TEMPO 2712/2717 VRB18KT 4000 TSRA SCT030CB BKN040
BECMG 2717/2719 33012KT
PROB30
TEMPO 2721/2802 5000 SHRA FEW030CB BKN040
TEMPO 2809/2812 4000 TSRA SCT025CB OVC040

Source NOAA


MET'MAP, your aeronautical weather chart ! - Copyright ORBIFLY December 2007

Programming & Development : Alexandra Zaïnal
Co-Developer : Marc-Olivier Méhu
Technical & hardware support : Manuel Goepfert
Concept & Financing : Baudouin d'Aumeries